createdAt,value
2023-03-02T00:07:26.598Z,78.7
2023-03-02T00:22:26.612Z,81.2
2023-03-02T00:27:26.614Z,81.3
2023-03-02T00:32:26.969Z,84.4
2023-03-02T00:37:26.616Z,84.4
2023-03-02T00:42:26.627Z,85.2
2023-03-02T01:07:28.198Z,89.2
2023-03-02T01:17:26.652Z,88.9
2023-03-02T01:27:26.648Z,87.9
2023-03-02T01:32:26.735Z,87.1
2023-03-02T01:37:26.658Z,88.3
2023-03-02T01:47:26.629Z,89.3
2023-03-02T01:57:26.670Z,87.5
2023-03-02T02:07:26.641Z,89.2
2023-03-02T02:12:26.655Z,88.5
2023-03-02T02:22:26.629Z,88.5
2023-03-02T02:42:26.635Z,88.9
2023-03-02T02:52:26.690Z,88.7
2023-03-02T03:07:26.673Z,88.9
2023-03-02T03:12:26.691Z,89.6
2023-03-02T03:17:26.648Z,89.9
2023-03-02T03:22:26.625Z,89.2
2023-03-02T03:27:26.665Z,88.5
2023-03-02T03:32:26.718Z,88.0
2023-03-02T03:37:26.654Z,88.1
2023-03-02T03:42:26.644Z,87.9
2023-03-02T03:47:26.665Z,90.0
2023-03-02T03:52:26.655Z,87.9
2023-03-02T03:57:26.654Z,88.7
2023-03-02T04:02:26.745Z,89.8
2023-03-02T04:07:26.666Z,88.7
2023-03-02T04:17:26.652Z,89.3
2023-03-02T04:22:26.685Z,90.2
2023-03-02T04:42:26.694Z,89.5
2023-03-02T04:47:26.869Z,90.0
2023-03-02T04:52:26.674Z,90.8
2023-03-02T04:57:26.689Z,89.6
2023-03-02T05:02:26.761Z,88.9
2023-03-02T05:22:26.663Z,88.5
2023-03-02T05:32:26.720Z,88.9
2023-03-02T05:37:26.692Z,89.3
2023-03-02T05:42:26.672Z,88.7
2023-03-02T05:52:26.762Z,88.3
2023-03-02T06:07:26.666Z,89.1
2023-03-02T06:12:26.708Z,89.3
2023-03-02T06:17:26.683Z,89.1
2023-03-02T06:32:26.783Z,89.4
2023-03-02T06:37:26.710Z,88.5
2023-03-02T06:42:26.684Z,89.0
2023-03-02T06:47:26.714Z,89.3
2023-03-02T07:02:26.698Z,88.1
2023-03-02T07:07:26.709Z,88.1
2023-03-02T07:12:26.708Z,87.4
2023-03-02T07:17:26.701Z,86.8
2023-03-02T07:22:26.733Z,87.4
2023-03-02T07:32:26.813Z,87.0
2023-03-02T07:42:26.701Z,87.6
2023-03-02T07:47:26.704Z,88.8
2023-03-02T07:52:26.696Z,88.2
2023-03-02T07:57:26.705Z,88.4
2023-03-02T08:07:26.707Z,88.3
2023-03-02T08:12:26.700Z,87.6
2023-03-02T08:17:26.798Z,87.3
2023-03-02T08:22:26.726Z,87.1
2023-03-02T08:27:26.698Z,86.7
2023-03-02T08:32:26.791Z,86.5
2023-03-02T08:37:26.711Z,86.9
2023-03-02T08:42:27.852Z,87.1
2023-03-02T08:47:26.726Z,87.1
2023-03-02T08:52:26.740Z,87.2
2023-03-02T09:02:26.726Z,85.8
2023-03-02T09:07:26.712Z,85.6
2023-03-02T09:12:26.703Z,85.3
2023-03-02T09:27:26.738Z,85.7
2023-03-02T09:37:26.727Z,83.5
2023-03-02T09:42:38.132Z,83.9
2023-03-02T09:47:34.833Z,83.0
2023-03-02T09:52:26.713Z,80.9
2023-03-02T09:57:26.708Z,80.7
2023-03-02T10:02:26.734Z,80.4
2023-03-02T10:07:26.732Z,78.5
2023-03-02T10:12:26.731Z,70.1
2023-03-02T10:17:26.757Z,63.0
2023-03-02T10:22:26.751Z,58.5
2023-03-02T10:27:26.744Z,56.4
2023-03-02T10:32:26.773Z,55.4
2023-03-02T10:37:26.744Z,53.6
2023-03-02T10:42:26.871Z,54.1
2023-03-02T10:47:26.760Z,54.7
2023-03-02T10:52:26.726Z,53.5
2023-03-02T10:57:26.723Z,54.9
2023-03-02T11:02:26.771Z,54.6
2023-03-02T11:12:26.718Z,53.8
2023-03-02T11:17:26.771Z,53.8
2023-03-02T11:22:26.735Z,53.4
2023-03-02T11:27:26.735Z,55.8
2023-03-02T11:32:26.858Z,54.9
2023-03-02T11:37:26.759Z,56.0
2023-03-02T11:42:26.792Z,58.4
2023-03-02T11:47:26.842Z,57.1
2023-03-02T11:52:26.763Z,58.5
2023-03-02T11:57:26.736Z,59.6
2023-03-02T12:07:26.806Z,55.9
2023-03-02T12:12:26.829Z,55.9
2023-03-02T12:17:26.783Z,55.1
2023-03-02T12:27:26.929Z,56.0
2023-03-02T12:32:26.851Z,54.6
2023-03-02T12:37:26.765Z,54.5
2023-03-02T12:42:26.754Z,51.5
2023-03-02T12:47:27.241Z,51.9
2023-03-02T12:52:26.928Z,54.4
2023-03-02T12:57:26.776Z,57.1
2023-03-02T13:02:26.778Z,57.3
2023-03-02T13:07:26.759Z,58.9
2023-03-02T13:12:26.783Z,63.5
2023-03-02T13:17:26.786Z,61.7
2023-03-02T13:22:26.788Z,63.6
2023-03-02T13:32:26.832Z,64.0
2023-03-02T13:37:26.767Z,63.5
2023-03-02T13:42:26.758Z,63.0
2023-03-02T13:47:26.781Z,62.1
2023-03-02T13:52:26.773Z,59.1
2023-03-02T13:57:26.772Z,61.1
2023-03-02T14:02:26.786Z,61.1
2023-03-02T14:07:26.786Z,59.1
2023-03-02T14:17:26.777Z,58.7
2023-03-02T14:22:26.823Z,56.4
2023-03-02T14:27:26.779Z,55.3
2023-03-02T14:32:26.879Z,54.6
2023-03-02T14:37:26.790Z,54.9
2023-03-02T14:42:26.769Z,56.4
2023-03-02T14:47:26.791Z,55.9
2023-03-02T14:52:26.793Z,55.9
2023-03-02T14:57:26.791Z,56.8
2023-03-02T15:02:27.277Z,50.2
2023-03-02T15:07:26.842Z,52.3
2023-03-02T15:12:26.806Z,49.7
2023-03-02T15:17:26.794Z,51.3
2023-03-02T15:22:26.808Z,53.6
2023-03-02T15:32:26.908Z,53.2
2023-03-02T15:37:27.009Z,53.3
2023-03-02T15:42:26.789Z,53.3
2023-03-02T15:47:26.777Z,54.4
2023-03-02T15:52:26.818Z,58.7
2023-03-02T16:02:26.778Z,57.0
2023-03-02T16:07:26.806Z,58.3
2023-03-02T16:12:26.817Z,61.6
2023-03-02T16:22:26.798Z,62.2
2023-03-02T16:32:26.855Z,63.7
2023-03-02T16:37:26.867Z,65.0
2023-03-02T16:42:26.859Z,67.5
2023-03-02T16:52:26.801Z,67.3
2023-03-02T17:07:26.838Z,69.3
2023-03-02T17:12:26.831Z,70.8
2023-03-02T17:17:26.824Z,71.3
2023-03-02T17:22:26.834Z,73.0
2023-03-02T17:27:26.855Z,75.4
2023-03-02T17:37:26.838Z,75.8
2023-03-02T17:42:26.815Z,75.8
2023-03-02T17:47:26.832Z,77.7
2023-03-02T17:52:26.838Z,78.7
2023-03-02T18:02:26.850Z,80.0
2023-03-02T18:07:26.816Z,80.7
2023-03-02T18:12:26.845Z,81.0
2023-03-02T18:17:26.823Z,81.8
2023-03-02T18:27:26.881Z,82.9
2023-03-02T18:37:26.852Z,83.0
2023-03-02T18:47:26.834Z,83.3
2023-03-02T18:52:26.839Z,83.6
2023-03-02T19:02:26.858Z,84.8
2023-03-02T19:12:26.863Z,84.6
2023-03-02T19:22:26.849Z,85.4
2023-03-02T19:27:26.851Z,85.5
2023-03-02T19:32:26.939Z,86.6
2023-03-02T19:37:26.850Z,87.1
2023-03-02T19:47:26.844Z,86.0
2023-03-02T19:52:26.880Z,87.0
2023-03-02T19:57:26.856Z,87.2
2023-03-02T20:07:26.884Z,88.2
2023-03-02T20:22:26.881Z,89.0
2023-03-02T20:27:26.870Z,89.3
2023-03-02T20:32:26.944Z,88.9
2023-03-02T20:37:26.897Z,89.0
2023-03-02T20:42:26.861Z,89.6
2023-03-02T20:47:26.859Z,89.6
2023-03-02T20:52:26.895Z,88.8
2023-03-02T21:02:26.876Z,89.8
2023-03-02T21:07:26.915Z,88.5
2023-03-02T21:12:26.889Z,88.8
2023-03-02T21:22:26.864Z,89.5
2023-03-02T21:37:26.903Z,90.8
2023-03-02T21:42:26.914Z,91.1
2023-03-02T21:47:26.893Z,90.6
2023-03-02T21:52:26.888Z,90.5
2023-03-02T21:57:26.910Z,90.5
2023-03-02T22:02:26.893Z,90.6
2023-03-02T22:07:26.876Z,89.6
2023-03-02T22:12:26.878Z,90.9
2023-03-02T22:17:26.892Z,90.6
2023-03-02T22:22:26.911Z,91.0
2023-03-02T22:27:26.902Z,90.2
2023-03-02T22:37:26.920Z,89.5
2023-03-02T22:47:26.917Z,90.6
2023-03-02T22:52:26.927Z,90.7
2023-03-02T22:57:27.046Z,90.4
2023-03-02T23:07:26.922Z,90.9
2023-03-02T23:12:26.911Z,91.7
2023-03-02T23:22:26.913Z,90.6
2023-03-02T23:27:26.954Z,90.3
2023-03-02T23:37:26.902Z,90.8
2023-03-02T23:42:26.894Z,91.1
2023-03-02T23:47:26.896Z,91.1
2023-03-02T23:52:26.938Z,91.4
2023-03-02T23:57:26.937Z,92.8
